Time;durP1;ratioP1;P1;durP2;ratioP2;P2;SDS_P1;SDS_P2;PMS_P1;PMS_P2;Temp;Humidity;BMP_temperature;BMP_pressure;BME280_temperature;BME280_humidity;BME280_pressure;Samples;Min_cycle;Max_cycle;Signal;HPM_P1;HPM_P2
2023/06/18 00:00:57;;;;;;;14.65;9.40;;;;;;;13.60;100.00;100752.44;6035492;28;20022;-67
2023/06/18 00:03:52;;;;;;;17.27;9.00;;;;;;;13.60;100.00;100744.44;6043947;28;20038;-67
2023/06/18 00:06:47;;;;;;;17.63;9.48;;;;;;;13.79;100.00;100757.47;6049500;28;20276;-67
2023/06/18 00:09:43;;;;;;;16.57;9.47;;;;;;;13.88;100.00;100761.81;6059159;28;20049;-67
2023/06/18 00:12:38;;;;;;;15.77;9.40;;;;;;;13.70;100.00;100761.09;6057062;28;20030;-67
2023/06/18 00:15:33;;;;;;;19.23;9.57;;;;;;;13.54;100.00;100753.09;6056341;28;20044;-67
2023/06/18 00:18:29;;;;;;;18.50;9.27;;;;;;;13.67;100.00;100766.75;6057059;28;20480;-67
2023/06/18 00:21:24;;;;;;;16.80;8.90;;;;;;;13.49;100.00;100756.25;6047041;28;20023;-67
2023/06/18 00:24:20;;;;;;;16.53;9.57;;;;;;;13.48;100.00;100751.91;6041569;28;20643;-66
2023/06/18 00:27:15;;;;;;;18.65;9.48;;;;;;;13.45;100.00;100754.09;6056957;28;20022;-67
2023/06/18 00:30:11;;;;;;;16.92;9.60;;;;;;;13.35;100.00;100758.72;6056646;28;20523;-68
2023/06/18 00:33:07;;;;;;;16.17;8.93;;;;;;;13.39;100.00;100774.22;6056988;28;20025;-67
2023/06/18 00:36:04;;;;;;;17.40;9.53;;;;;;;13.17;100.00;100750.84;6045219;28;20034;-67
2023/06/18 00:39:03;;;;;;;15.68;8.98;;;;;;;13.19;100.00;100764.81;6030908;28;20021;-67
2023/06/18 00:41:59;;;;;;;15.68;9.43;;;;;;;13.20;100.00;100752.34;6051034;28;20029;-67
2023/06/18 00:44:54;;;;;;;14.57;8.83;;;;;;;13.12;100.00;100753.16;6050949;28;20056;-68
2023/06/18 00:47:50;;;;;;;16.95;9.10;;;;;;;13.49;100.00;100758.91;6053017;28;20049;-67
2023/06/18 00:50:46;;;;;;;17.67;10.07;;;;;;;13.30;100.00;100772.53;6068037;28;20048;-67
2023/06/18 00:53:41;;;;;;;18.20;8.77;;;;;;;13.01;100.00;100753.44;6049984;28;20352;-67
2023/06/18 00:56:37;;;;;;;17.60;8.97;;;;;;;12.88;100.00;100740.53;6052295;28;20029;-67
2023/06/18 00:59:32;;;;;;;13.98;8.95;;;;;;;12.97;100.00;100774.19;6068039;28;20304;-67
2023/06/18 01:02:28;;;;;;;15.45;9.05;;;;;;;13.18;100.00;100768.47;6052615;28;20064;-67
2023/06/18 01:05:24;;;;;;;18.08;9.43;;;;;;;13.13;100.00;100769.97;6051841;28;20030;-67
2023/06/18 01:08:23;;;;;;;17.50;9.60;;;;;;;12.94;100.00;100765.69;6052508;28;20033;-67
2023/06/18 01:11:19;;;;;;;16.05;8.75;;;;;;;12.87;100.00;100773.50;6052209;28;20030;-67
2023/06/18 01:14:14;;;;;;;15.80;9.13;;;;;;;12.85;100.00;100783.47;6049845;28;20497;-67
2023/06/18 01:17:09;;;;;;;18.90;10.45;;;;;;;12.72;100.00;100761.75;6050823;28;20436;-67
2023/06/18 01:20:10;;;;;;;21.27;10.47;;;;;;;12.99;100.00;100772.19;6067423;28;20032;-67
2023/06/18 01:23:11;;;;;;;20.92;11.38;;;;;;;13.07;100.00;100769.59;6033587;28;20402;-67
2023/06/18 01:26:06;;;;;;;19.17;9.52;;;;;;;13.19;100.00;100759.50;6037314;28;20026;-67
2023/06/18 01:29:02;;;;;;;17.27;9.65;;;;;;;12.83;100.00;100748.19;6034625;28;20131;-67
2023/06/18 01:31:58;;;;;;;17.15;10.25;;;;;;;12.74;100.00;100754.47;6029314;28;20030;-67
2023/06/18 01:34:56;;;;;;;15.27;9.50;;;;;;;12.81;100.00;100755.50;6049763;28;20034;-67
2023/06/18 01:38:13;;;;;;;16.70;8.75;;;;;;;12.71;100.00;100775.25;6040483;28;20026;-67
2023/06/18 01:41:10;;;;;;;18.63;9.77;;;;;;;12.80;100.00;100772.44;6041129;28;20027;-68
2023/06/18 01:44:08;;;;;;;17.23;9.25;;;;;;;12.64;100.00;100768.88;6039959;28;20129;-67
2023/06/18 01:47:04;;;;;;;16.55;9.68;;;;;;;13.27;100.00;100756.84;6047978;28;20378;-67
2023/06/18 01:50:01;;;;;;;18.45;9.65;;;;;;;13.10;100.00;100763.97;6041246;28;20064;-67
2023/06/18 01:52:57;;;;;;;14.85;8.63;;;;;;;13.26;100.00;100755.22;6066343;28;20026;-67
2023/06/18 01:55:56;;;;;;;16.98;9.02;;;;;;;13.71;100.00;100757.44;6066003;28;20388;-67
2023/06/18 01:58:51;;;;;;;15.27;8.25;;;;;;;14.07;100.00;100761.47;6066322;28;20168;-67
2023/06/18 02:01:47;;;;;;;14.53;9.00;;;;;;;14.21;100.00;100746.63;6040538;28;20038;-67
2023/06/18 02:04:43;;;;;;;15.87;8.83;;;;;;;14.45;100.00;100746.63;6050613;28;20096;-67
2023/06/18 02:07:39;;;;;;;15.48;8.88;;;;;;;13.94;100.00;100761.13;6050979;28;20268;-67
2023/06/18 02:10:34;;;;;;;14.90;8.70;;;;;;;13.54;100.00;100758.41;6030031;28;20034;-67
2023/06/18 02:13:29;;;;;;;16.43;9.17;;;;;;;13.94;100.00;100750.44;6050437;28;20366;-67
2023/06/18 02:16:25;;;;;;;14.75;8.48;;;;;;;13.90;100.00;100749.13;6050490;28;20032;-67
2023/06/18 02:19:20;;;;;;;15.87;9.17;;;;;;;13.43;100.00;100753.41;6029613;28;20030;-67
2023/06/18 02:22:16;;;;;;;15.60;8.83;;;;;;;13.20;100.00;100758.53;6038295;28;20030;-67
2023/06/18 02:25:12;;;;;;;14.68;8.60;;;;;;;12.85;100.00;100751.53;6050301;28;20444;-68
2023/06/18 02:28:07;;;;;;;14.68;8.30;;;;;;;12.70;100.00;100769.06;6050649;28;20057;-67
2023/06/18 02:31:05;;;;;;;13.77;8.33;;;;;;;12.52;100.00;100771.81;6038396;28;20038;-67
2023/06/18 02:34:00;;;;;;;14.98;8.82;;;;;;;12.39;100.00;100770.56;6035486;28;20473;-67
2023/06/18 02:36:56;;;;;;;15.37;8.93;;;;;;;12.33;100.00;100777.34;6023722;28;20076;-67
2023/06/18 02:39:51;;;;;;;16.93;8.87;;;;;;;12.28;100.00;100776.97;6050336;28;20033;-67
2023/06/18 02:42:47;;;;;;;19.23;9.77;;;;;;;12.10;100.00;100770.84;6047791;28;20520;-67
2023/06/18 02:45:43;;;;;;;17.73;9.27;;;;;;;12.16;100.00;100775.53;6053140;28;20072;-67
2023/06/18 02:48:38;;;;;;;18.00;11.10;;;;;;;12.07;100.00;100780.94;6037836;28;20370;-67
2023/06/18 02:51:33;;;;;;;18.33;11.47;;;;;;;12.48;100.00;100788.22;6050168;28;20432;-67
2023/06/18 02:54:28;;;;;;;15.73;9.70;;;;;;;12.27;100.00;100798.38;6047430;28;20288;-67
2023/06/18 02:57:24;;;;;;;19.30;10.17;;;;;;;12.33;100.00;100798.63;6028581;28;20022;-67
2023/06/18 03:00:19;;;;;;;19.00;11.30;;;;;;;12.07;100.00;100788.91;6032880;28;20080;-68
2023/06/18 03:03:15;;;;;;;19.63;10.30;;;;;;;12.36;100.00;100797.47;6035612;28;20281;-67
2023/06/18 03:06:10;;;;;;;18.97;10.47;;;;;;;12.52;100.00;100805.56;6049384;28;20033;-67
2023/06/18 03:09:06;;;;;;;20.10;10.80;;;;;;;12.34;100.00;100810.06;6049757;28;20461;-67
2023/06/18 03:12:01;;;;;;;24.42;10.30;;;;;;;12.72;100.00;100788.38;6049751;28;20276;-67
2023/06/18 03:14:56;;;;;;;19.80;10.73;;;;;;;13.37;100.00;100794.84;6048954;28;20030;-67
2023/06/18 03:17:51;;;;;;;19.40;10.17;;;;;;;13.55;100.00;100805.38;6049832;28;20036;-67
2023/06/18 03:20:47;;;;;;;18.57;10.07;;;;;;;13.47;100.00;100794.72;6025153;28;20038;-67
2023/06/18 03:23:43;;;;;;;20.73;10.47;;;;;;;13.14;100.00;100799.09;6046156;28;20041;-67
2023/06/18 03:26:38;;;;;;;18.58;10.80;;;;;;;13.09;100.00;100802.25;6049454;28;20280;-67
2023/06/18 03:29:35;;;;;;;19.53;9.80;;;;;;;12.79;100.00;100802.72;6049930;28;20026;-67
2023/06/18 03:32:30;;;;;;;19.38;10.30;;;;;;;13.28;100.00;100805.63;6044694;28;20037;-67
2023/06/18 03:35:26;;;;;;;16.93;9.73;;;;;;;14.03;100.00;100794.78;6043090;28;20026;-67
2023/06/18 03:38:21;;;;;;;18.37;10.93;;;;;;;14.46;100.00;100803.50;6042140;28;20356;-67
2023/06/18 03:41:16;;;;;;;18.83;9.93;;;;;;;14.30;100.00;100794.44;6035454;28;20129;-67
2023/06/18 03:44:12;;;;;;;18.30;10.93;;;;;;;14.56;100.00;100801.47;6040465;28;20470;-67
2023/06/18 03:47:07;;;;;;;18.20;10.87;;;;;;;14.55;100.00;100789.13;6046855;28;20030;-67
2023/06/18 03:50:02;;;;;;;17.63;11.02;;;;;;;14.82;100.00;100783.38;6042520;28;20117;-67
2023/06/18 03:52:58;;;;;;;19.23;11.50;;;;;;;15.07;100.00;100803.66;6042295;28;20134;-67
2023/06/18 03:55:53;;;;;;;22.27;11.20;;;;;;;14.74;100.00;100802.09;6026727;28;20034;-67
2023/06/18 03:58:48;;;;;;;19.67;11.70;;;;;;;14.61;100.00;100796.44;6035804;28;20559;-67
2023/06/18 04:01:44;;;;;;;19.77;10.60;;;;;;;14.90;100.00;100805.56;6037009;28;20034;-67
2023/06/18 04:04:39;;;;;;;18.83;10.60;;;;;;;15.21;99.56;100805.59;6039654;28;20041;-67
2023/06/18 04:07:34;;;;;;;20.15;10.82;;;;;;;15.08;100.00;100800.00;6039061;28;20045;-67
2023/06/18 04:10:30;;;;;;;18.70;9.80;;;;;;;14.96;100.00;100796.03;6047238;28;20041;-67
2023/06/18 04:13:25;;;;;;;19.07;10.50;;;;;;;14.86;100.00;100787.38;6048611;28;20026;-67
2023/06/18 04:16:20;;;;;;;17.20;10.33;;;;;;;14.86;100.00;100787.38;6041346;28;20469;-67
2023/06/18 04:19:16;;;;;;;18.63;10.17;;;;;;;15.21;100.00;100800.28;6053474;28;20268;-67
2023/06/18 04:22:11;;;;;;;18.27;10.23;;;;;;;14.82;100.00;100802.91;6042317;28;20063;-67
2023/06/18 04:25:07;;;;;;;14.97;8.80;;;;;;;14.93;100.00;100793.69;6031305;28;20038;-67
2023/06/18 04:28:02;;;;;;;13.73;8.65;;;;;;;15.37;100.00;100783.31;6053428;28;20030;-67
2023/06/18 04:30:57;;;;;;;14.10;8.33;;;;;;;16.07;99.00;100786.72;6050473;28;20096;-67
2023/06/18 04:33:53;;;;;;;15.83;8.57;;;;;;;16.97;91.06;100768.75;6052581;28;20260;-67
2023/06/18 04:36:48;;;;;;;16.50;9.63;;;;;;;17.55;87.87;100782.09;6035489;28;20057;-67
2023/06/18 04:39:44;;;;;;;15.27;9.70;;;;;;;18.27;85.06;100784.63;6040803;28;20035;-67
2023/06/18 04:42:39;;;;;;;19.08;10.32;;;;;;;17.66;86.19;100778.94;6039822;28;20066;-67
2023/06/18 04:45:35;;;;;;;15.83;9.63;;;;;;;17.39;86.44;100778.78;6051343;28;20033;-66
2023/06/18 04:48:30;;;;;;;19.43;11.20;;;;;;;17.03;87.36;100792.97;6052898;28;20017;-67
2023/06/18 04:51:25;;;;;;;18.30;10.63;;;;;;;17.19;86.24;100791.94;6050096;28;20022;-66
2023/06/18 04:54:21;;;;;;;18.87;10.23;;;;;;;17.04;89.45;100789.25;6051953;28;20264;-66
2023/06/18 04:57:17;;;;;;;19.20;11.13;;;;;;;17.89;85.72;100791.31;6036222;28;20378;-67
2023/06/18 05:00:13;;;;;;;18.70;11.38;;;;;;;18.05;83.63;100777.63;6051772;28;20453;-67
2023/06/18 05:03:08;;;;;;;18.77;11.30;;;;;;;17.54;84.41;100783.13;6034553;28;20044;-66
2023/06/18 05:06:03;;;;;;;20.60;10.83;;;;;;;17.46;87.39;100790.41;6051975;28;20131;-67
2023/06/18 05:08:59;;;;;;;15.82;10.00;;;;;;;18.04;82.97;100790.25;6027201;28;20027;-66
2023/06/18 05:11:54;;;;;;;16.43;10.70;;;;;;;17.96;84.70;100806.47;6040645;28;20038;-67
2023/06/18 05:14:50;;;;;;;18.17;11.25;;;;;;;19.15;77.60;100808.22;6030000;28;20377;-66
2023/06/18 05:17:46;;;;;;;18.35;10.65;;;;;;;18.40;78.11;100788.25;6039617;28;20045;-66
2023/06/18 05:20:41;;;;;;;15.82;9.93;;;;;;;17.97;82.50;100789.34;6043227;28;20469;-66
2023/06/18 05:23:37;;;;;;;19.53;9.97;;;;;;;18.52;80.55;100810.09;6053307;28;20022;-66
2023/06/18 05:26:33;;;;;;;15.40;9.85;;;;;;;18.65;78.00;100796.75;6045566;28;20060;-66
2023/06/18 05:29:28;;;;;;;18.40;8.80;;;;;;;19.13;78.55;100802.22;6034109;28;20466;-66
2023/06/18 05:32:23;;;;;;;18.57;9.23;;;;;;;19.80;74.53;100795.03;6046749;28;20491;-67
2023/06/18 05:35:19;;;;;;;13.53;8.47;;;;;;;20.45;70.50;100801.53;6000461;28;20129;-67
2023/06/18 05:38:14;;;;;;;14.65;9.20;;;;;;;19.89;72.11;100788.44;6033206;28;20080;-66
2023/06/18 05:41:09;;;;;;;15.57;9.17;;;;;;;20.09;72.88;100789.25;6044770;28;20033;-67
2023/06/18 05:44:05;;;;;;;16.37;9.17;;;;;;;20.63;69.70;100801.72;6051062;28;20037;-67
2023/06/18 05:47:00;;;;;;;16.07;9.33;;;;;;;20.76;69.22;100797.13;6051837;28;20033;-67
2023/06/18 05:49:55;;;;;;;13.97;8.40;;;;;;;21.22;69.36;100807.00;6048606;28;20069;-67
2023/06/18 05:52:50;;;;;;;17.20;8.73;;;;;;;22.83;60.33;100811.81;6051909;28;20466;-67
2023/06/18 05:55:46;;;;;;;12.33;8.20;;;;;;;22.69;61.66;100811.09;6043633;28;20050;-67
2023/06/18 05:58:41;;;;;;;12.77;8.40;;;;;;;21.79;63.78;100811.53;6035168;28;20034;-67
2023/06/18 06:01:37;;;;;;;14.85;9.07;;;;;;;22.42;61.82;100818.56;6037317;28;20036;-67
2023/06/18 06:04:33;;;;;;;13.40;8.55;;;;;;;21.57;63.98;100826.38;6045611;28;20022;-64
2023/06/18 06:07:28;;;;;;;13.55;9.00;;;;;;;21.69;64.01;100830.88;6049366;28;20164;-67
2023/06/18 06:10:23;;;;;;;15.83;8.80;;;;;;;21.96;64.57;100820.78;6041299;28;20102;-67
2023/06/18 06:13:19;;;;;;;13.95;9.32;;;;;;;22.24;62.48;100828.47;6044777;28;20026;-67
2023/06/18 06:16:14;;;;;;;11.73;8.53;;;;;;;22.48;60.01;100836.59;6051052;28;20038;-67
2023/06/18 06:19:09;;;;;;;16.80;9.80;;;;;;;22.84;60.96;100832.38;6039264;28;20284;-67
2023/06/18 06:22:05;;;;;;;15.43;8.77;;;;;;;22.34;62.81;100829.66;6050777;28;20087;-67
2023/06/18 06:25:00;;;;;;;14.03;8.80;;;;;;;22.16;60.95;100832.28;6050336;28;20113;-68
2023/06/18 06:27:57;;;;;;;15.60;8.53;;;;;;;21.35;64.17;100834.78;6042204;28;20087;-67
2023/06/18 06:30:52;;;;;;;12.77;7.90;;;;;;;21.85;62.38;100832.25;6050949;28;20037;-66
2023/06/18 06:33:47;;;;;;;12.93;8.50;;;;;;;22.94;58.82;100825.38;6050214;28;20088;-67
2023/06/18 06:36:43;;;;;;;14.57;8.07;;;;;;;23.72;54.98;100824.72;6036922;28;20021;-67
2023/06/18 06:39:38;;;;;;;10.50;7.28;;;;;;;22.41;60.22;100830.44;6049840;28;20281;-67
2023/06/18 06:42:33;;;;;;;12.60;8.43;;;;;;;22.67;60.35;100839.38;6031331;28;20045;-67
2023/06/18 06:45:28;;;;;;;13.67;8.63;;;;;;;23.22;59.44;100827.59;6050037;28;20428;-68
2023/06/18 06:48:24;;;;;;;12.13;8.50;;;;;;;23.03;60.15;100834.88;6050550;28;20030;-67
2023/06/18 06:51:19;;;;;;;11.50;8.37;;;;;;;23.81;53.87;100840.41;6034360;28;20097;-67
2023/06/18 06:54:14;;;;;;;12.15;8.27;;;;;;;23.82;54.71;100849.34;6038600;28;20037;-67
2023/06/18 06:57:10;;;;;;;12.87;7.77;;;;;;;24.35;53.59;100849.47;6037569;28;20462;-65
2023/06/18 07:00:06;;;;;;;10.43;7.65;;;;;;;23.36;54.40;100845.34;6027331;28;20053;-66
2023/06/18 07:03:02;;;;;;;11.00;7.18;;;;;;;22.72;58.64;100847.69;6025003;28;20041;-65
2023/06/18 07:05:57;;;;;;;12.85;8.02;;;;;;;23.90;55.33;100857.16;6049284;28;20044;-66
2023/06/18 07:08:53;;;;;;;11.23;7.17;;;;;;;24.58;51.88;100838.63;6046711;28;20121;-66
2023/06/18 07:11:48;;;;;;;9.82;6.85;;;;;;;24.81;50.58;100825.91;6043938;28;20462;-66
2023/06/18 07:14:43;;;;;;;8.90;6.27;;;;;;;24.64;50.40;100838.53;6035142;28;20033;-66
2023/06/18 07:17:39;;;;;;;9.60;6.47;;;;;;;24.19;50.96;100840.09;6046387;28;20014;-65
2023/06/18 07:20:35;;;;;;;11.25;6.47;;;;;;;24.69;51.50;100829.69;6049644;28;20480;-66
2023/06/18 07:23:30;;;;;;;10.13;6.32;;;;;;;24.70;49.95;100837.59;6043638;28;20034;-66
2023/06/18 07:26:25;;;;;;;9.17;6.10;;;;;;;24.54;49.83;100835.53;6043152;28;20034;-66
2023/06/18 07:29:20;;;;;;;8.27;5.93;;;;;;;24.94;49.88;100843.03;6029661;28;20033;-66
2023/06/18 07:32:16;;;;;;;9.63;6.30;;;;;;;25.81;46.44;100825.63;6030882;28;20284;-66
2023/06/18 07:35:11;;;;;;;7.18;5.43;;;;;;;26.20;45.13;100829.34;6019872;28;20437;-66
2023/06/18 07:38:06;;;;;;;9.03;5.40;;;;;;;25.72;45.74;100817.03;6027153;28;20477;-68
2023/06/18 07:41:02;;;;;;;8.13;5.17;;;;;;;25.86;45.71;100821.09;6034808;28;20034;-66
2023/06/18 07:43:57;;;;;;;8.23;5.80;;;;;;;25.51;47.91;100844.03;6045897;28;20044;-66
2023/06/18 07:46:53;;;;;;;11.40;6.07;;;;;;;25.57;46.20;100841.19;6049560;28;20033;-66
2023/06/18 07:49:48;;;;;;;8.77;6.23;;;;;;;26.06;45.35;100830.69;6049384;28;20381;-66
2023/06/18 07:52:43;;;;;;;10.03;7.07;;;;;;;25.40;47.00;100837.53;6034879;28;20042;-66
2023/06/18 07:55:39;;;;;;;9.30;6.20;;;;;;;25.81;46.87;100831.06;6053615;28;20072;-66
2023/06/18 07:58:34;;;;;;;10.57;7.00;;;;;;;25.11;48.28;100833.13;6045333;28;20026;-65
2023/06/18 08:01:29;;;;;;;10.03;6.27;;;;;;;25.75;46.10;100824.69;6047262;28;20037;-66
2023/06/18 08:04:24;;;;;;;11.83;6.33;;;;;;;25.12;47.43;100829.31;6046658;28;20045;-66
2023/06/18 08:07:20;;;;;;;9.47;6.77;;;;;;;24.90;48.71;100822.84;6020110;28;20058;-66
2023/06/18 08:10:15;;;;;;;11.25;6.72;;;;;;;25.27;47.02;100810.66;6034827;28;20265;-66
2023/06/18 08:13:10;;;;;;;9.97;6.10;;;;;;;24.66;47.70;100820.13;6037775;28;20101;-67
2023/06/18 08:16:06;;;;;;;10.13;6.40;;;;;;;24.71;48.54;100822.94;6045096;28;20034;-66
2023/06/18 08:19:01;;;;;;;9.98;6.35;;;;;;;25.02;47.21;100819.06;6068834;28;20041;-65
2023/06/18 08:21:57;;;;;;;8.80;6.40;;;;;;;25.76;45.54;100804.63;6039901;28;20377;-66
2023/06/18 08:24:52;;;;;;;9.80;6.47;;;;;;;26.12;46.18;100816.13;6052879;28;20034;-67
2023/06/18 08:27:47;;;;;;;7.77;5.60;;;;;;;26.02;44.28;100809.44;6053733;28;20018;-65
2023/06/18 08:30:42;;;;;;;9.13;5.90;;;;;;;25.96;43.17;100824.00;6031426;28;20035;-67
2023/06/18 08:33:38;;;;;;;10.70;5.53;;;;;;;25.93;43.16;100816.31;6034732;28;20343;-67
2023/06/18 08:36:33;;;;;;;8.87;5.93;;;;;;;26.03;43.00;100805.66;6027608;28;20316;-67
2023/06/18 08:39:29;;;;;;;8.20;5.57;;;;;;;26.31;44.07;100812.13;6050093;28;20038;-66
2023/06/18 08:42:24;;;;;;;7.32;5.57;;;;;;;26.46;43.37;100821.38;6044388;28;20336;-67
2023/06/18 08:45:20;;;;;;;9.38;5.47;;;;;;;26.72;42.79;100822.56;6053376;28;20042;-66
2023/06/18 08:48:15;;;;;;;7.60;5.40;;;;;;;27.30;40.94;100813.06;6028752;28;20100;-67
2023/06/18 08:51:11;;;;;;;7.95;5.63;;;;;;;27.18;41.20;100819.44;6042319;28;20317;-67
2023/06/18 08:54:13;;;;;;;10.75;5.78;;;;;;;26.90;41.70;100803.28;6049784;28;20081;-67
2023/06/18 08:57:16;;;;;;;7.75;5.28;;;;;;;27.32;40.23;100808.16;6041717;28;20030;-67
2023/06/18 09:00:12;;;;;;;9.55;6.03;;;;;;;27.20;41.60;100795.50;6061836;28;20038;-67
2023/06/18 09:03:07;;;;;;;8.77;6.43;;;;;;;26.98;42.38;100804.75;6046015;28;20026;-67
2023/06/18 09:06:03;;;;;;;10.60;6.55;;;;;;;26.79;43.56;100797.94;6027300;28;20034;-67
2023/06/18 09:09:01;;;;;;;9.73;6.18;;;;;;;27.26;43.18;100809.22;6034024;28;20057;-67
2023/06/18 09:11:57;;;;;;;8.38;5.78;;;;;;;27.48;41.50;100797.25;6052669;28;20057;-67
2023/06/18 09:14:52;;;;;;;14.60;6.07;;;;;;;27.72;40.81;100805.97;6051857;28;20048;-67
2023/06/18 09:17:50;;;;;;;11.63;6.17;;;;;;;27.49;41.02;100789.88;6046624;28;20049;-66
2023/06/18 09:20:46;;;;;;;9.77;6.65;;;;;;;26.27;43.71;100790.03;6044682;28;20283;-66
2023/06/18 09:23:41;;;;;;;7.43;5.20;;;;;;;26.76;41.84;100798.41;6050259;28;20025;-67
2023/06/18 09:26:36;;;;;;;9.07;6.10;;;;;;;27.08;42.07;100788.53;6052345;28;20022;-67
2023/06/18 09:29:33;;;;;;;9.23;6.10;;;;;;;27.09;41.84;100787.47;6052097;28;20030;-66
2023/06/18 09:32:29;;;;;;;8.68;6.13;;;;;;;27.18;40.90;100797.66;6052220;28;20743;-67
2023/06/18 09:35:24;;;;;;;7.88;5.65;;;;;;;27.28;41.50;100790.69;6032441;28;20026;-67
2023/06/18 09:38:19;;;;;;;12.20;5.33;;;;;;;27.79;39.71;100792.94;6042887;28;20021;-67
2023/06/18 09:41:18;;;;;;;11.47;6.10;;;;;;;27.62;40.78;100792.22;6036439;28;20038;-67
2023/06/18 09:44:14;;;;;;;9.02;5.55;;;;;;;27.57;41.20;100789.44;6025548;28;20034;-67
2023/06/18 09:47:11;;;;;;;8.50;5.28;;;;;;;27.69;39.44;100776.50;6049958;28;20025;-68
2023/06/18 09:50:08;;;;;;;7.45;5.15;;;;;;;28.00;39.07;100778.41;6060657;28;20037;-69
2023/06/18 09:53:04;;;;;;;7.95;5.30;;;;;;;27.98;40.71;100761.50;6029870;28;20022;-68
2023/06/18 09:56:16;;;;;;;7.70;5.47;;;;;;;27.96;40.06;100774.59;6050851;28;20381;-66
2023/06/18 09:59:18;;;;;;;7.75;5.22;;;;;;;28.05;38.65;100775.78;6051557;28;20029;-69
2023/06/18 10:02:23;;;;;;;7.80;5.20;;;;;;;27.95;38.65;100777.56;6044614;28;20397;-66
2023/06/18 10:05:18;;;;;;;7.90;4.90;;;;;;;28.37;37.48;100788.59;6050666;28;20029;-65
2023/06/18 10:08:15;;;;;;;7.85;5.20;;;;;;;28.55;36.37;100779.97;6042246;28;20113;-66
2023/06/18 10:11:12;;;;;;;9.60;5.18;;;;;;;27.95;36.81;100770.19;6049709;28;20475;-66
2023/06/18 10:14:13;;;;;;;7.43;5.22;;;;;;;28.09;37.71;100776.91;6046346;28;20045;-68
2023/06/18 10:17:15;;;;;;;7.78;6.32;;;;;;;27.73;37.62;100778.44;6050822;28;20416;-66
2023/06/18 10:20:14;;;;;;;8.45;4.85;;;;;;;28.07;38.39;100764.63;6052437;28;20038;-68
2023/06/18 10:23:09;;;;;;;12.35;6.13;;;;;;;28.23;37.78;100772.66;6037139;28;20076;-68
2023/06/18 10:26:05;;;;;;;9.32;5.47;;;;;;;28.32;37.88;100753.88;6063824;28;20099;-66
2023/06/18 10:29:01;;;;;;;7.70;4.55;;;;;;;28.26;36.32;100750.31;6050882;28;20462;-66
2023/06/18 10:31:56;;;;;;;9.70;5.03;;;;;;;28.56;36.14;100748.88;6051334;28;20528;-66
2023/06/18 10:34:53;;;;;;;5.90;4.90;;;;;;;28.38;35.42;100768.38;6055667;28;20268;-66
2023/06/18 10:37:48;;;;;;;7.00;3.88;;;;;;;29.02;32.91;100747.25;6014412;28;20022;-66
2023/06/18 10:40:44;;;;;;;8.50;5.37;;;;;;;29.65;32.89;100751.56;6030215;28;20038;-67
2023/06/18 10:43:42;;;;;;;6.40;4.40;;;;;;;28.30;35.40;100767.81;6043260;28;20284;-65
2023/06/18 10:46:38;;;;;;;6.57;4.57;;;;;;;28.90;34.34;100748.28;6049960;28;20586;-66
2023/06/18 10:49:33;;;;;;;7.90;4.50;;;;;;;29.34;33.77;100745.22;6050307;28;20033;-66
2023/06/18 10:52:32;;;;;;;8.30;3.63;;;;;;;29.65;29.61;100737.91;6050362;28;20030;-66
2023/06/18 10:55:28;;;;;;;5.85;3.70;;;;;;;29.09;30.25;100745.91;6049407;28;20042;-66
2023/06/18 10:58:34;;;;;;;5.95;3.60;;;;;;;28.93;31.45;100734.09;6032977;28;20080;-66
2023/06/18 11:01:29;;;;;;;5.95;3.90;;;;;;;28.45;30.36;100726.16;6050014;28;20112;-66
2023/06/18 11:04:29;;;;;;;6.45;3.60;;;;;;;28.56;30.51;100736.06;6049476;28;20480;-66
2023/06/18 11:07:25;;;;;;;6.05;4.00;;;;;;;28.56;31.09;100721.59;6049856;28;20077;-66
2023/06/18 11:10:31;;;;;;;5.88;3.90;;;;;;;29.01;30.05;100719.09;6050109;28;20033;-68
2023/06/18 11:13:31;;;;;;;5.32;3.92;;;;;;;28.81;30.90;100732.66;6041502;28;20037;-67
2023/06/18 11:16:27;;;;;;;6.03;3.85;;;;;;;28.30;32.21;100745.97;6033795;28;20378;-66
2023/06/18 11:19:23;;;;;;;5.57;3.13;;;;;;;28.70;31.17;100731.00;6033235;28;20030;-66
2023/06/18 11:22:18;;;;;;;5.20;3.70;;;;;;;28.46;31.91;100733.25;6064747;28;20026;-66
2023/06/18 11:25:15;;;;;;;5.03;3.80;;;;;;;29.38;31.42;100725.25;6042104;28;20037;-67
2023/06/18 11:28:13;;;;;;;6.15;4.20;;;;;;;29.29;30.54;100710.50;6037367;28;20041;-66
2023/06/18 11:31:08;;;;;;;5.68;4.10;;;;;;;28.65;31.21;100717.28;6057935;28;20063;-66
2023/06/18 11:34:06;;;;;;;5.00;3.33;;;;;;;28.60;31.39;100700.84;6046028;28;20018;-66
2023/06/18 11:37:01;;;;;;;7.68;3.58;;;;;;;29.08;29.76;100699.75;6032066;28;20434;-66
2023/06/18 11:39:57;;;;;;;5.40;3.72;;;;;;;27.96;30.33;100690.06;6040642;28;20062;-67
2023/06/18 11:42:53;;;;;;;4.87;3.60;;;;;;;27.99;30.59;100710.53;6035256;28;20045;-67
2023/06/18 11:45:50;;;;;;;6.30;3.35;;;;;;;28.53;30.65;100694.81;6036329;28;20605;-67
2023/06/18 11:48:45;;;;;;;7.03;4.07;;;;;;;29.09;29.31;100690.44;6025580;28;20117;-66
2023/06/18 11:51:41;;;;;;;4.80;3.20;;;;;;;29.20;30.51;100687.47;6036509;28;20380;-66
2023/06/18 11:54:40;;;;;;;5.63;4.10;;;;;;;28.57;30.42;100687.72;6045310;28;20035;-66
2023/06/18 11:57:35;;;;;;;5.78;3.35;;;;;;;29.11;28.62;100680.88;6025401;28;20046;-66
2023/06/18 12:00:31;;;;;;;6.20;4.05;;;;;;;29.20;28.61;100695.69;6029820;28;20389;-65
2023/06/18 12:03:33;;;;;;;4.35;3.58;;;;;;;28.45;30.30;100692.59;6025641;28;20027;-66
2023/06/18 12:06:28;;;;;;;5.05;3.30;;;;;;;28.36;29.01;100695.00;6038154;28;20041;-66
2023/06/18 12:09:24;;;;;;;5.10;3.45;;;;;;;28.52;28.60;100693.16;6048861;28;20022;-67
2023/06/18 12:12:41;;;;;;;4.63;3.10;;;;;;;29.46;28.58;100694.66;6048552;28;20026;-66
2023/06/18 12:15:48;;;;;;;4.60;3.50;;;;;;;29.89;29.15;100684.34;6041887;28;20077;-66
2023/06/18 12:18:44;;;;;;;4.80;2.92;;;;;;;29.53;27.46;100683.47;6030082;28;20102;-67
2023/06/18 12:21:40;;;;;;;7.57;3.85;;;;;;;29.40;29.42;100682.09;6036354;28;20030;-66
2023/06/18 12:24:35;;;;;;;7.72;3.53;;;;;;;29.82;27.79;100681.03;6047671;28;20065;-66
2023/06/18 12:27:31;;;;;;;4.60;3.13;;;;;;;30.09;27.49;100678.84;6048736;28;20041;-66
2023/06/18 12:30:38;;;;;;;5.38;3.15;;;;;;;29.96;27.46;100687.63;6063624;28;20291;-67
2023/06/18 12:33:42;;;;;;;4.75;3.10;;;;;;;29.24;26.99;100679.59;6034680;28;20229;-67
2023/06/18 12:36:41;;;;;;;4.65;2.92;;;;;;;29.04;27.60;100672.13;6025488;28;20030;-67
2023/06/18 12:39:36;;;;;;;;;;;;;;;28.89;27.10;100689.28;6029620;28;20061;-67
2023/06/18 12:42:32;;;;;;;4.87;2.63;;;;;;;28.11;27.72;100676.53;6050386;28;19909;-67
2023/06/18 12:45:29;;;;;;;6.03;3.20;;;;;;;28.43;27.56;100673.72;6036754;28;20129;-66
2023/06/18 12:48:25;;;;;;;4.63;2.88;;;;;;;29.66;26.00;100680.19;6051548;28;20053;-66
2023/06/18 12:51:20;;;;;;;5.47;2.95;;;;;;;29.94;24.69;100662.44;6052489;28;20036;-66
2023/06/18 12:54:17;;;;;;;5.05;3.05;;;;;;;29.31;26.20;100659.13;6032995;28;20077;-65
2023/06/18 12:57:15;;;;;;;5.60;3.08;;;;;;;30.02;25.83;100668.19;6035904;28;20030;-67
2023/06/18 13:00:28;;;;;;;5.95;2.83;;;;;;;30.09;25.03;100654.22;6050751;28;20107;-67
2023/06/18 13:03:26;;;;;;;4.30;2.90;;;;;;;29.49;26.27;100661.31;6058787;28;20453;-66
2023/06/18 13:06:21;;;;;;;5.85;3.03;;;;;;;29.42;26.55;100641.66;6038922;28;20054;-67
2023/06/18 13:09:17;;;;;;;5.32;3.42;;;;;;;29.67;25.92;100638.09;6052290;28;20476;-68
2023/06/18 13:12:14;;;;;;;4.00;2.50;;;;;;;29.95;25.02;100637.53;6042154;28;20033;-67
2023/06/18 13:15:10;;;;;;;3.65;2.75;;;;;;;30.09;24.51;100638.63;6051584;28;20029;-67
2023/06/18 13:18:05;;;;;;;4.65;2.58;;;;;;;29.90;25.56;100640.28;6051875;28;20088;-66
2023/06/18 13:21:02;;;;;;;5.35;3.00;;;;;;;29.83;25.31;100644.41;6051665;28;20432;-67
2023/06/18 13:23:57;;;;;;;6.95;3.22;;;;;;;29.50;25.76;100630.16;6045013;28;20036;-67
2023/06/18 13:26:53;;;;;;;8.23;3.80;;;;;;;29.07;28.07;100629.81;6039580;28;20046;-67
2023/06/18 13:29:48;;;;;;;6.25;3.25;;;;;;;30.22;27.85;100642.72;6040527;28;20450;-67